createdAt,value
2023-01-25T00:00:48.057Z,96499.13
2023-01-25T00:03:15.792Z,96488.81
2023-01-25T00:05:43.482Z,96493.06
2023-01-25T00:08:11.145Z,96501.75
2023-01-25T00:10:38.930Z,96499.34
2023-01-25T00:13:06.628Z,96488.53
2023-01-25T00:15:34.285Z,96498.41
2023-01-25T00:18:03.264Z,96493.66
2023-01-25T00:20:30.867Z,96489.22
2023-01-25T00:22:58.520Z,96491.38
2023-01-25T00:25:26.285Z,96498.59
2023-01-25T00:27:53.950Z,96496.94
2023-01-25T00:30:21.838Z,96489.19
2023-01-25T00:32:55.263Z,96489.94
2023-01-25T00:35:24.313Z,96493.50
2023-01-25T00:37:54.023Z,96493.28
2023-01-25T00:40:21.714Z,96485.44
2023-01-25T00:42:49.324Z,96481.75
2023-01-25T00:45:17.550Z,96485.09
2023-01-25T00:47:45.210Z,96486.75
2023-01-25T00:50:12.868Z,96480.69
2023-01-25T00:52:42.260Z,96480.59
2023-01-25T00:55:11.016Z,96484.00
2023-01-25T00:57:38.694Z,96471.91
2023-01-25T01:00:07.680Z,96477.84
2023-01-25T01:02:35.339Z,96489.13
2023-01-25T01:05:03.034Z,96481.31
2023-01-25T01:07:30.727Z,96484.75
2023-01-25T01:10:00.297Z,96483.78
2023-01-25T01:12:27.985Z,96477.72
2023-01-25T01:14:56.619Z,96488.06
2023-01-25T01:17:24.273Z,96490.69
2023-01-25T01:19:51.898Z,96485.47
2023-01-25T01:22:19.571Z,96489.59
2023-01-25T01:24:48.648Z,96490.56
2023-01-25T01:27:17.740Z,96479.28
2023-01-25T01:29:45.344Z,96492.22
2023-01-25T01:32:13.209Z,96474.78
2023-01-25T01:34:40.918Z,96473.22
2023-01-25T01:37:08.602Z,96476.53
2023-01-25T01:39:36.224Z,96467.78
2023-01-25T01:42:03.915Z,96467.78
2023-01-25T01:44:48.301Z,96461.72
2023-01-25T01:47:21.322Z,96469.53
2023-01-25T01:49:54.203Z,96469.44
2023-01-25T01:52:26.050Z,96466.94
2023-01-25T01:54:59.367Z,96472.16
2023-01-25T01:57:31.379Z,96469.53
2023-01-25T02:00:03.864Z,96469.44
2023-01-25T02:02:31.573Z,96467.78
2023-01-25T02:05:02.238Z,96477.28
2023-01-25T02:07:35.130Z,96466.84
2023-01-25T02:10:05.678Z,96468.63
2023-01-25T02:12:33.753Z,96472.06
2023-01-25T02:15:02.743Z,96468.50
2023-01-25T02:17:33.073Z,96472.06
2023-01-25T02:20:07.839Z,96468.50
2023-01-25T02:22:46.159Z,96462.44
2023-01-25T02:25:16.232Z,96465.03
2023-01-25T02:27:51.048Z,96459.81
2023-01-25T02:30:18.930Z,96459.81
2023-01-25T02:32:46.580Z,96457.19
2023-01-25T02:35:20.494Z,96469.31
2023-01-25T02:37:48.201Z,96460.53
2023-01-25T02:40:17.883Z,96459.81
2023-01-25T02:42:46.861Z,96462.34
2023-01-25T02:45:17.627Z,96456.28
2023-01-25T02:47:45.259Z,96461.50
2023-01-25T02:50:15.080Z,96450.22
2023-01-25T02:52:43.589Z,96450.22
2023-01-25T02:55:11.530Z,96445.00
2023-01-25T02:57:40.566Z,96448.44
2023-01-25T03:00:09.551Z,96446.66
2023-01-25T03:02:37.390Z,96440.59
2023-01-25T03:05:05.840Z,96437.16
2023-01-25T03:07:33.644Z,96441.44
2023-01-25T03:10:01.255Z,96441.44
2023-01-25T03:12:28.900Z,96444.06
2023-01-25T03:14:57.863Z,96444.84
2023-01-25T03:17:25.870Z,96439.63
2023-01-25T03:19:54.005Z,96441.31
2023-01-25T03:22:21.692Z,96431.00
2023-01-25T03:24:49.469Z,96431.00
2023-01-25T03:27:18.456Z,96429.19
2023-01-25T03:29:46.769Z,96426.72
2023-01-25T03:32:15.804Z,96431.81
2023-01-25T03:34:43.435Z,96421.34
2023-01-25T03:37:11.246Z,96423.97
2023-01-25T03:39:38.869Z,96430.03
2023-01-25T03:42:06.618Z,96423.97
2023-01-25T03:44:34.340Z,96427.41
2023-01-25T03:47:01.986Z,96432.63
2023-01-25T03:49:31.017Z,96429.19
2023-01-25T03:51:58.954Z,96417.94
2023-01-25T03:54:26.574Z,96423.97
2023-01-25T03:56:54.204Z,96415.31
2023-01-25T03:59:21.879Z,96415.31
2023-01-25T04:01:49.757Z,96417.94
2023-01-25T04:04:17.438Z,96410.91
2023-01-25T04:06:46.480Z,96423.03
2023-01-25T04:09:14.713Z,96420.44
2023-01-25T04:11:42.822Z,96420.44
2023-01-25T04:14:11.893Z,96419.59
2023-01-25T04:16:39.582Z,96419.59
2023-01-25T04:19:07.330Z,96415.19
2023-01-25T04:21:35.352Z,96419.59
2023-01-25T04:24:04.767Z,96417.81
2023-01-25T04:26:32.418Z,96407.38
2023-01-25T04:29:00.068Z,96404.75
2023-01-25T04:31:27.877Z,96405.69
2023-01-25T04:33:56.450Z,96403.06
2023-01-25T04:36:24.100Z,96404.75
2023-01-25T04:38:51.695Z,96407.38
2023-01-25T04:41:20.689Z,96416.97
2023-01-25T04:43:48.307Z,96409.13
2023-01-25T04:46:15.970Z,96403.91
2023-01-25T04:48:44.703Z,96390.84
2023-01-25T04:51:13.516Z,96391.69
2023-01-25T04:53:41.168Z,96388.25
2023-01-25T04:56:08.875Z,96383.88
2023-01-25T04:58:37.906Z,96384.81
2023-01-25T05:01:05.984Z,96387.31
2023-01-25T05:03:34.231Z,96383.88
2023-01-25T05:06:01.844Z,96376.88
2023-01-25T05:08:29.479Z,96369.84
2023-01-25T05:10:57.187Z,96371.50
2023-01-25T05:13:24.919Z,96369.75
2023-01-25T05:15:53.873Z,96374.84
2023-01-25T05:18:21.499Z,96379.22
2023-01-25T05:20:49.165Z,96375.69
2023-01-25T05:23:16.768Z,96361.78
2023-01-25T05:26:01.829Z,96367.00
2023-01-25T05:28:29.453Z,96362.63
2023-01-25T05:30:58.719Z,96363.47
2023-01-25T05:33:26.819Z,96360.84
2023-01-25T05:35:56.149Z,96359.03
2023-01-25T05:38:23.803Z,96359.03
2023-01-25T05:40:51.466Z,96363.47
2023-01-25T05:43:19.090Z,96368.69
2023-01-25T05:45:53.392Z,96366.06
2023-01-25T05:48:22.449Z,96368.56
2023-01-25T05:50:50.111Z,96370.22
2023-01-25T05:53:17.747Z,96368.56
2023-01-25T05:55:45.353Z,96368.56
2023-01-25T05:58:12.995Z,96371.16
2023-01-25T06:00:40.645Z,96371.16
2023-01-25T06:03:08.391Z,96368.56
2023-01-25T06:05:37.683Z,96365.09
2023-01-25T06:08:05.463Z,96362.50
2023-01-25T06:10:33.135Z,96358.94
2023-01-25T06:13:01.198Z,96356.34
2023-01-25T06:15:28.869Z,96357.25
2023-01-25T06:17:57.073Z,96356.34
2023-01-25T06:20:24.691Z,96357.25
2023-01-25T06:22:53.771Z,96345.88
2023-01-25T06:25:21.448Z,96345.88
2023-01-25T06:27:49.076Z,96347.53
2023-01-25T06:30:17.213Z,96350.13
2023-01-25T06:32:44.857Z,96341.38
2023-01-25T06:35:12.869Z,96338.75
2023-01-25T06:37:40.488Z,96343.13
2023-01-25T06:40:10.724Z,96338.75
2023-01-25T06:42:38.361Z,96338.75
2023-01-25T06:45:07.710Z,96336.16
2023-01-25T06:47:35.460Z,96340.41
2023-01-25T06:50:03.143Z,96335.19
2023-01-25T06:52:31.876Z,96341.25
2023-01-25T06:54:59.472Z,96339.47
2023-01-25T06:57:29.369Z,96331.63
2023-01-25T06:59:57.361Z,96331.63
2023-01-25T07:02:25.016Z,96328.03
2023-01-25T07:04:52.664Z,96322.13
2023-01-25T07:07:20.311Z,96304.69
2023-01-25T07:09:47.921Z,96309.06
2023-01-25T07:12:15.516Z,96309.91
2023-01-25T07:14:44.587Z,96303.84
2023-01-25T07:17:12.228Z,96306.56
2023-01-25T07:19:39.884Z,96306.56
2023-01-25T07:22:07.529Z,96301.34
2023-01-25T07:24:35.136Z,96302.31
2023-01-25T07:27:02.767Z,96303.13
2023-01-25T07:29:30.726Z,96322.25
2023-01-25T07:31:59.696Z,96306.56
2023-01-25T07:34:28.920Z,96306.44
2023-01-25T07:36:56.568Z,96296.84
2023-01-25T07:39:24.193Z,96296.84
2023-01-25T07:41:51.825Z,96308.25
2023-01-25T07:44:23.180Z,96308.13
2023-01-25T07:46:50.816Z,96309.91
2023-01-25T07:49:19.949Z,96312.50
2023-01-25T07:51:47.583Z,96306.34
2023-01-25T07:54:15.449Z,96310.72
2023-01-25T07:56:43.079Z,96310.72
2023-01-25T07:59:11.669Z,96307.16
2023-01-25T08:01:40.382Z,96306.34
2023-01-25T08:04:08.555Z,96314.19
2023-01-25T08:06:39.662Z,96308.13
2023-01-25T08:09:12.040Z,96310.72
2023-01-25T08:11:39.843Z,96311.66
2023-01-25T08:14:08.270Z,96305.50
2023-01-25T08:16:35.928Z,96314.19
2023-01-25T08:19:04.301Z,96323.78
2023-01-25T08:21:33.945Z,96314.19
2023-01-25T08:24:05.091Z,96314.19
2023-01-25T08:26:33.309Z,96312.38
2023-01-25T08:29:01.133Z,96305.50
2023-01-25T08:31:30.610Z,96310.72
2023-01-25T08:33:58.961Z,96303.84
2023-01-25T08:36:28.151Z,96302.06
2023-01-25T08:38:57.393Z,96302.78
2023-01-25T08:41:27.425Z,96298.50
2023-01-25T08:43:56.437Z,96291.47
2023-01-25T08:46:27.227Z,96299.31
2023-01-25T08:48:56.475Z,96296.72
2023-01-25T08:51:25.551Z,96298.50
2023-01-25T08:53:53.752Z,96291.47
2023-01-25T08:56:22.245Z,96294.09
2023-01-25T08:58:51.685Z,96299.31
2023-01-25T09:01:22.025Z,96294.09
2023-01-25T09:03:51.792Z,96299.31
2023-01-25T09:06:20.910Z,96295.78
2023-01-25T09:08:49.146Z,96287.94
2023-01-25T09:11:18.822Z,96281.88
2023-01-25T09:13:48.459Z,96279.25
2023-01-25T09:16:20.068Z,96275.00
2023-01-25T09:18:49.792Z,96274.88
2023-01-25T09:21:19.451Z,96267.16
2023-01-25T09:23:57.555Z,96267.97
2023-01-25T09:26:32.660Z,96280.94
2023-01-25T09:29:00.326Z,96279.25
2023-01-25T09:31:30.464Z,96271.44
2023-01-25T09:33:58.619Z,96276.66
2023-01-25T09:36:26.720Z,96283.56
2023-01-25T09:38:54.502Z,96266.19
2023-01-25T09:41:33.640Z,96277.50
2023-01-25T09:44:15.172Z,96273.09
2023-01-25T09:46:48.898Z,96273.09
2023-01-25T09:49:50.714Z,96274.75
2023-01-25T09:52:37.440Z,96267.88
2023-01-25T09:55:14.565Z,96267.88
2023-01-25T09:57:45.896Z,96265.25
2023-01-25T10:00:18.902Z,96273.09
2023-01-25T10:02:52.962Z,96264.44
2023-01-25T10:05:23.913Z,96266.09
2023-01-25T10:07:59.065Z,96257.44
2023-01-25T10:10:33.768Z,96247.81
2023-01-25T10:13:03.026Z,96243.53
2023-01-25T10:15:36.954Z,96241.75
2023-01-25T10:18:18.220Z,96242.59
2023-01-25T10:20:53.151Z,96238.31
2023-01-25T10:23:57.663Z,96241.06
2023-01-25T10:26:29.765Z,96240.91
2023-01-25T10:29:03.816Z,96243.53
2023-01-25T10:31:41.066Z,96236.53
2023-01-25T10:34:19.335Z,96232.16
2023-01-25T10:36:49.969Z,96226.09
2023-01-25T10:39:18.969Z,96220.03
2023-01-25T10:41:51.876Z,96219.09
2023-01-25T10:44:25.819Z,96223.47
2023-01-25T10:46:58.385Z,96214.81
2023-01-25T10:49:31.863Z,96214.66
2023-01-25T10:52:17.088Z,96214.66
2023-01-25T10:54:45.267Z,96206.72
2023-01-25T10:57:17.432Z,96207.53
2023-01-25T10:59:47.429Z,96204.00
2023-01-25T11:02:41.250Z,96203.84
2023-01-25T11:05:31.724Z,96193.53
2023-01-25T11:08:00.352Z,96184.88
2023-01-25T11:10:33.590Z,96178.81
2023-01-25T11:13:22.856Z,96178.00
2023-01-25T11:15:53.303Z,96171.81
2023-01-25T11:18:24.106Z,96158.75
2023-01-25T11:21:07.908Z,96157.81
2023-01-25T11:23:35.652Z,96156.00
2023-01-25T11:26:15.323Z,96151.75
2023-01-25T11:28:44.464Z,96155.19
2023-01-25T11:31:14.746Z,96143.06
2023-01-25T11:33:43.171Z,96149.97
2023-01-25T11:36:21.645Z,96144.84
2023-01-25T11:39:01.795Z,96146.53
2023-01-25T11:41:39.644Z,96136.22
2023-01-25T11:44:32.328Z,96134.41
2023-01-25T11:47:10.023Z,96132.75
2023-01-25T11:49:51.500Z,96125.75
2023-01-25T11:52:30.923Z,96119.84
2023-01-25T11:55:09.413Z,96107.59
2023-01-25T11:57:53.715Z,96106.78
2023-01-25T12:00:36.174Z,96102.38
2023-01-25T12:03:45.982Z,96094.53
2023-01-25T12:06:18.494Z,96076.25
2023-01-25T12:09:03.687Z,96076.25
2023-01-25T12:11:48.248Z,96066.63
2023-01-25T12:14:29.181Z,96064.16
2023-01-25T12:17:16.327Z,96057.97
2023-01-25T12:20:08.611Z,96065.69
2023-01-25T12:22:46.800Z,96053.44
2023-01-25T12:25:25.471Z,96054.28
2023-01-25T12:28:08.392Z,96042.06
2023-01-25T12:30:44.620Z,96045.59
2023-01-25T12:33:17.329Z,96041.22
2023-01-25T12:35:50.821Z,96036.00
2023-01-25T12:38:27.520Z,96031.59
2023-01-25T12:41:00.449Z,96039.44
2023-01-25T12:43:33.671Z,96029.00
2023-01-25T12:46:05.996Z,96029.00
2023-01-25T12:48:41.264Z,96022.94
2023-01-25T12:51:10.218Z,96015.09
2023-01-25T12:53:40.477Z,96004.66
2023-01-25T12:56:12.755Z,96008.09
2023-01-25T12:58:45.091Z,96009.88
2023-01-25T13:01:19.611Z,96011.66
2023-01-25T13:04:04.462Z,96009.88
2023-01-25T13:06:40.089Z,96009.03
2023-01-25T13:09:14.969Z,96002.88
2023-01-25T13:11:45.906Z,96001.09
2023-01-25T13:14:36.837Z,95989.81
2023-01-25T13:17:23.055Z,95999.28
2023-01-25T13:19:51.852Z,95993.13
2023-01-25T13:23:01.987Z,96000.13
2023-01-25T13:25:29.642Z,95984.44
2023-01-25T13:28:42.382Z,95984.44
2023-01-25T13:31:10.142Z,95989.56
2023-01-25T13:33:37.936Z,96003.56
2023-01-25T13:36:39.816Z,95988.72
2023-01-25T13:39:43.220Z,96000.81
2023-01-25T13:42:22.493Z,95990.38
2023-01-25T13:44:54.659Z,95990.38
2023-01-25T13:47:24.334Z,95979.13
2023-01-25T13:49:58.262Z,95977.31
2023-01-25T13:52:27.806Z,95966.88
2023-01-25T13:54:57.839Z,95971.16
2023-01-25T13:57:27.449Z,95971.16
2023-01-25T14:00:13.336Z,95966.88
2023-01-25T14:02:45.673Z,95962.47
2023-01-25T14:05:22.288Z,95971.16
2023-01-25T14:07:52.251Z,95966.88
2023-01-25T14:10:24.064Z,95959.84
2023-01-25T14:12:52.936Z,95965.09
2023-01-25T14:15:24.623Z,95958.22
2023-01-25T14:18:13.507Z,95959.72
2023-01-25T14:20:41.516Z,95958.91
2023-01-25T14:23:22.141Z,95952.84
2023-01-25T14:25:50.059Z,95956.31
2023-01-25T14:28:19.126Z,95956.31
2023-01-25T14:30:52.699Z,95951.09
2023-01-25T14:33:23.792Z,95947.50
2023-01-25T14:35:56.279Z,95952.72
2023-01-25T14:38:27.729Z,95944.88
2023-01-25T14:40:58.418Z,95944.03
2023-01-25T14:43:27.288Z,95942.28
2023-01-25T14:45:56.388Z,95935.41
2023-01-25T14:48:48.327Z,95928.38
2023-01-25T14:51:21.458Z,95934.44
2023-01-25T14:53:56.798Z,95929.34
2023-01-25T14:56:34.825Z,95926.59
2023-01-25T14:59:03.521Z,95930.19
2023-01-25T15:01:39.312Z,95930.19
2023-01-25T15:04:12.900Z,95932.78
2023-01-25T15:06:48.764Z,95931.00
2023-01-25T15:09:36.810Z,95931.81
2023-01-25T15:12:06.061Z,95929.22
2023-01-25T15:14:34.035Z,95939.66
2023-01-25T15:17:03.067Z,95930.03
2023-01-25T15:19:32.367Z,95930.88
2023-01-25T15:22:01.515Z,95927.44
2023-01-25T15:24:29.360Z,95921.38
2023-01-25T15:26:57.047Z,95913.53
2023-01-25T15:29:27.107Z,95899.53
2023-01-25T15:31:57.312Z,95905.59
2023-01-25T15:34:32.450Z,95898.69
2023-01-25T15:37:00.136Z,95905.69
2023-01-25T15:39:27.949Z,95900.47
2023-01-25T15:41:55.598Z,95890.88
2023-01-25T15:44:23.220Z,95901.31
2023-01-25T15:46:53.562Z,95903.91
2023-01-25T15:49:26.161Z,95902.16
2023-01-25T15:51:55.785Z,95890.03
2023-01-25T15:54:24.293Z,95887.31
2023-01-25T15:56:55.765Z,95894.31
2023-01-25T15:59:23.598Z,95891.81
2023-01-25T16:01:51.284Z,95888.25
2023-01-25T16:04:19.043Z,95880.41
2023-01-25T16:06:50.049Z,95882.19
2023-01-25T16:09:21.784Z,95883.88
2023-01-25T16:11:52.018Z,95878.63
2023-01-25T16:14:20.065Z,95880.41
2023-01-25T16:16:50.428Z,95875.19
2023-01-25T16:19:20.305Z,95876.03
2023-01-25T16:21:48.056Z,95869.97
2023-01-25T16:24:15.921Z,95877.81
2023-01-25T16:26:51.397Z,95876.97
2023-01-25T16:29:19.101Z,95868.31
2023-01-25T16:31:46.781Z,95869.03
2023-01-25T16:34:14.551Z,95869.81
2023-01-25T16:36:42.446Z,95864.75
2023-01-25T16:39:16.368Z,95862.97
2023-01-25T16:41:44.199Z,95857.75
2023-01-25T16:44:13.405Z,95857.75
2023-01-25T16:46:41.262Z,95852.50
2023-01-25T16:49:09.970Z,95852.50
2023-01-25T16:51:38.665Z,95852.50
2023-01-25T16:54:06.761Z,95842.06
2023-01-25T16:56:34.501Z,95849.06
2023-01-25T16:59:04.212Z,95842.06
2023-01-25T17:01:33.381Z,95847.28
2023-01-25T17:04:01.049Z,95839.47
2023-01-25T17:06:30.782Z,95841.94
2023-01-25T17:09:02.174Z,95843.72
2023-01-25T17:11:32.893Z,95831.63
2023-01-25T17:14:01.119Z,95823.78
2023-01-25T17:16:31.053Z,95831.63
2023-01-25T17:19:05.220Z,95822.00
2023-01-25T17:21:33.826Z,95820.19
2023-01-25T17:24:03.217Z,95808.94
2023-01-25T17:26:32.070Z,95818.56
2023-01-25T17:29:02.828Z,95808.22
2023-01-25T17:31:32.630Z,95808.13
2023-01-25T17:34:05.131Z,95808.94
2023-01-25T17:36:32.800Z,95807.03
2023-01-25T17:39:03.009Z,95801.81
2023-01-25T17:41:30.660Z,95809.63
2023-01-25T17:43:58.637Z,95807.03
2023-01-25T17:46:29.841Z,95805.22
2023-01-25T17:48:58.256Z,95795.75
2023-01-25T17:51:27.327Z,95797.38
2023-01-25T17:53:55.178Z,95796.56
2023-01-25T17:56:22.848Z,95794.75
2023-01-25T17:58:51.212Z,95792.97
2023-01-25T18:01:21.158Z,95791.22
2023-01-25T18:03:50.790Z,95780.91
2023-01-25T18:06:20.768Z,95779.94
2023-01-25T18:08:51.745Z,95769.63
2023-01-25T18:11:21.681Z,95765.22
2023-01-25T18:13:51.172Z,95768.78
2023-01-25T18:16:21.557Z,95757.50
2023-01-25T18:18:50.494Z,95755.72
2023-01-25T18:21:22.203Z,95753.94
2023-01-25T18:23:52.530Z,95756.56
2023-01-25T18:26:22.149Z,95746.13
2023-01-25T18:28:51.972Z,95750.50
2023-01-25T18:31:19.863Z,95750.50
2023-01-25T18:33:47.581Z,95747.91
2023-01-25T18:36:15.772Z,95750.50
2023-01-25T18:38:43.432Z,95747.91
2023-01-25T18:41:12.882Z,95751.34
2023-01-25T18:43:40.506Z,95746.13
2023-01-25T18:46:08.318Z,95745.13
2023-01-25T18:48:36.248Z,95739.09
2023-01-25T18:51:07.984Z,95739.91
2023-01-25T18:53:37.173Z,95733.75
2023-01-25T18:56:07.250Z,95726.84
2023-01-25T18:58:38.060Z,95725.06
2023-01-25T19:01:08.850Z,95726.72
2023-01-25T19:03:36.748Z,95720.69
2023-01-25T19:06:05.129Z,95726.72
2023-01-25T19:08:35.534Z,95717.22
2023-01-25T19:11:05.945Z,95714.63
2023-01-25T19:13:36.428Z,95718.06
2023-01-25T19:16:06.687Z,95705.84
2023-01-25T19:18:35.394Z,95707.63
2023-01-25T19:21:03.848Z,95698.94
2023-01-25T19:23:34.377Z,95701.56
2023-01-25T19:26:02.116Z,95696.34
2023-01-25T19:28:30.120Z,95684.94
2023-01-25T19:31:06.940Z,95686.72
2023-01-25T19:33:34.699Z,95681.50
2023-01-25T19:36:04.282Z,95674.59
2023-01-25T19:38:32.572Z,95669.38
2023-01-25T19:41:04.922Z,95677.22
2023-01-25T19:43:32.620Z,95672.81
2023-01-25T19:48:32.260Z,95671.88
2023-01-25T19:51:08.095Z,95668.44
2023-01-25T19:53:35.822Z,95669.38
2023-01-25T19:56:04.160Z,95663.22
2023-01-25T19:58:32.369Z,95664.16
2023-01-25T20:01:06.964Z,95660.59
2023-01-25T20:03:36.951Z,95658.00
2023-01-25T20:06:07.045Z,95651.94
2023-01-25T20:08:36.543Z,95646.72
2023-01-25T20:11:07.187Z,95651.09
2023-01-25T20:13:35.151Z,95643.25
2023-01-25T20:16:03.065Z,95645.06
2023-01-25T20:18:31.654Z,95639.69
2023-01-25T20:21:02.988Z,95639.84
2023-01-25T20:23:32.755Z,95637.25
2023-01-25T20:26:02.125Z,95635.44
2023-01-25T20:28:30.290Z,95630.19
2023-01-25T20:30:59.359Z,95632.81
2023-01-25T20:33:27.023Z,95632.81
2023-01-25T20:35:59.167Z,95628.41
2023-01-25T20:38:31.195Z,95625.81
2023-01-25T20:41:02.479Z,95635.31
2023-01-25T20:43:31.402Z,95635.16
2023-01-25T20:45:59.906Z,95627.47
2023-01-25T20:48:28.216Z,95630.78
2023-01-25T20:51:02.012Z,95626.50
2023-01-25T20:53:31.156Z,95622.09
2023-01-25T20:55:59.943Z,95621.28
2023-01-25T20:58:27.699Z,95621.28
2023-01-25T21:00:56.303Z,95605.59
2023-01-25T21:03:24.352Z,95614.25
2023-01-25T21:05:52.349Z,95615.94
2023-01-25T21:08:20.712Z,95607.25
2023-01-25T21:10:51.722Z,95606.44
2023-01-25T21:13:20.368Z,95614.25
2023-01-25T21:15:59.466Z,95609.03
2023-01-25T21:18:29.440Z,95601.19
2023-01-25T21:21:02.071Z,95590.75
2023-01-25T21:23:29.900Z,95585.53
2023-01-25T21:25:58.863Z,95591.72
2023-01-25T21:28:26.557Z,95593.38
2023-01-25T21:30:54.449Z,95591.59
2023-01-25T21:33:22.167Z,95583.75
2023-01-25T21:35:52.616Z,95583.75
2023-01-25T21:38:21.964Z,95583.75
2023-01-25T21:40:49.583Z,95575.91
2023-01-25T21:43:18.916Z,95575.09
2023-01-25T21:46:04.163Z,95577.69
2023-01-25T21:48:49.616Z,95574.13
2023-01-25T21:51:34.963Z,95572.47
2023-01-25T21:54:02.646Z,95572.47
2023-01-25T21:56:30.755Z,95565.59
2023-01-25T21:58:59.736Z,95562.97
2023-01-25T22:01:27.412Z,95559.56
2023-01-25T22:03:55.115Z,95561.19
2023-01-25T22:06:22.756Z,95562.16
2023-01-25T22:08:50.443Z,95558.72
2023-01-25T22:11:18.093Z,95549.13
2023-01-25T22:13:45.987Z,95549.91
2023-01-25T22:16:15.371Z,95538.66
2023-01-25T22:18:44.249Z,95550.75
2023-01-25T22:21:16.907Z,95538.78
2023-01-25T22:23:45.479Z,95542.22
2023-01-25T22:26:15.353Z,95535.22
2023-01-25T22:28:46.836Z,95539.47
2023-01-25T22:31:17.859Z,95539.47
2023-01-25T22:33:45.603Z,95530.84
2023-01-25T22:36:15.693Z,95527.22
2023-01-25T22:38:43.837Z,95534.25
2023-01-25T22:41:13.478Z,95532.59
2023-01-25T22:43:41.892Z,95531.63
2023-01-25T22:46:13.289Z,95530.84
2023-01-25T22:48:42.466Z,95519.56
2023-01-25T22:51:13.361Z,95513.50
2023-01-25T22:53:40.998Z,95512.66
2023-01-25T22:56:11.163Z,95517.78
2023-01-25T22:58:41.481Z,95514.19
2023-01-25T23:01:10.261Z,95501.25
2023-01-25T23:03:38.144Z,95499.47
2023-01-25T23:06:09.385Z,95497.81
2023-01-25T23:08:37.894Z,95494.38
2023-01-25T23:11:07.824Z,95494.38
2023-01-25T23:13:37.040Z,95495.38
2023-01-25T23:16:05.927Z,95482.31
2023-01-25T23:18:51.837Z,95478.88
2023-01-25T23:21:22.832Z,95469.25
2023-01-25T23:23:50.961Z,95464.84
2023-01-25T23:26:18.771Z,95464.84
2023-01-25T23:28:51.121Z,95466.63
2023-01-25T23:31:19.875Z,95466.63
2023-01-25T23:33:49.008Z,95469.25
2023-01-25T23:36:18.736Z,95460.56
2023-01-25T23:38:48.520Z,95460.56
2023-01-25T23:41:17.493Z,95457.00
2023-01-25T23:43:45.876Z,95454.53
2023-01-25T23:46:15.204Z,95453.72
2023-01-25T23:48:43.264Z,95445.88
2023-01-25T23:51:11.965Z,95457.13
2023-01-25T23:53:40.923Z,95443.28
2023-01-25T23:56:13.779Z,95446.69
2023-01-25T23:58:42.582Z,95442.44
